sensor_id;sensor_type;location;lat;lon;timestamp;P1;durP1;ratioP1;P2;durP2;ratioP2
40871;SDS011;26591;43.264;26.940;2023-04-24T00:01:13;13.48;;;6.20;;
40871;SDS011;26591;43.264;26.940;2023-04-24T00:03:40;9.13;;;5.95;;
40871;SDS011;26591;43.264;26.940;2023-04-24T00:06:06;9.38;;;5.47;;
40871;SDS011;26591;43.264;26.940;2023-04-24T00:08:33;11.35;;;5.47;;
40871;SDS011;26591;43.264;26.940;2023-04-24T00:10:59;9.30;;;5.78;;
40871;SDS011;26591;43.264;26.940;2023-04-24T00:13:25;9.70;;;5.35;;
40871;SDS011;26591;43.264;26.940;2023-04-24T00:15:53;10.27;;;5.68;;
40871;SDS011;26591;43.264;26.940;2023-04-24T00:18:19;10.90;;;4.97;;
40871;SDS011;26591;43.264;26.940;2023-04-24T00:20:45;9.35;;;5.78;;
40871;SDS011;26591;43.264;26.940;2023-04-24T00:23:11;10.25;;;5.50;;
40871;SDS011;26591;43.264;26.940;2023-04-24T00:25:37;11.50;;;6.03;;
40871;SDS011;26591;43.264;26.940;2023-04-24T00:28:03;8.48;;;5.50;;
40871;SDS011;26591;43.264;26.940;2023-04-24T00:30:29;10.93;;;5.80;;
40871;SDS011;26591;43.264;26.940;2023-04-24T00:32:58;11.85;;;5.97;;
40871;SDS011;26591;43.264;26.940;2023-04-24T00:35:24;15.02;;;5.97;;
40871;SDS011;26591;43.264;26.940;2023-04-24T00:37:49;12.43;;;6.57;;
40871;SDS011;26591;43.264;26.940;2023-04-24T00:40:15;13.52;;;6.47;;
40871;SDS011;26591;43.264;26.940;2023-04-24T00:42:40;12.35;;;6.30;;
40871;SDS011;26591;43.264;26.940;2023-04-24T00:45:06;11.02;;;6.22;;
40871;SDS011;26591;43.264;26.940;2023-04-24T00:47:33;9.68;;;5.95;;
40871;SDS011;26591;43.264;26.940;2023-04-24T00:49:59;14.30;;;6.82;;
40871;SDS011;26591;43.264;26.940;2023-04-24T00:52:27;13.68;;;6.43;;
40871;SDS011;26591;43.264;26.940;2023-04-24T00:54:53;12.25;;;6.47;;
40871;SDS011;26591;43.264;26.940;2023-04-24T00:57:18;11.75;;;6.50;;
40871;SDS011;26591;43.264;26.940;2023-04-24T00:59:44;12.27;;;6.82;;
40871;SDS011;26591;43.264;26.940;2023-04-24T01:02:11;15.18;;;7.43;;
40871;SDS011;26591;43.264;26.940;2023-04-24T01:04:37;14.77;;;7.30;;
40871;SDS011;26591;43.264;26.940;2023-04-24T01:07:03;10.43;;;7.00;;
40871;SDS011;26591;43.264;26.940;2023-04-24T01:09:34;12.02;;;7.13;;
40871;SDS011;26591;43.264;26.940;2023-04-24T01:12:01;11.13;;;7.05;;
40871;SDS011;26591;43.264;26.940;2023-04-24T01:14:27;10.43;;;6.90;;
40871;SDS011;26591;43.264;26.940;2023-04-24T01:16:53;14.48;;;6.97;;
40871;SDS011;26591;43.264;26.940;2023-04-24T01:19:18;11.75;;;6.60;;
40871;SDS011;26591;43.264;26.940;2023-04-24T01:21:44;15.55;;;6.53;;
40871;SDS011;26591;43.264;26.940;2023-04-24T01:24:12;9.63;;;6.50;;
40871;SDS011;26591;43.264;26.940;2023-04-24T01:26:38;10.25;;;6.18;;
40871;SDS011;26591;43.264;26.940;2023-04-24T01:29:03;16.20;;;5.82;;
40871;SDS011;26591;43.264;26.940;2023-04-24T01:31:29;11.32;;;5.90;;
40871;SDS011;26591;43.264;26.940;2023-04-24T01:33:55;8.68;;;5.82;;
40871;SDS011;26591;43.264;26.940;2023-04-24T01:36:22;12.27;;;6.20;;
40871;SDS011;26591;43.264;26.940;2023-04-24T01:38:50;12.73;;;6.60;;
40871;SDS011;26591;43.264;26.940;2023-04-24T01:41:16;12.13;;;6.28;;
40871;SDS011;26591;43.264;26.940;2023-04-24T01:43:56;10.10;;;5.75;;
40871;SDS011;26591;43.264;26.940;2023-04-24T01:46:23;9.32;;;6.50;;
40871;SDS011;26591;43.264;26.940;2023-04-24T01:48:52;11.25;;;6.60;;
40871;SDS011;26591;43.264;26.940;2023-04-24T01:51:18;11.85;;;7.47;;
40871;SDS011;26591;43.264;26.940;2023-04-24T01:53:44;10.18;;;6.82;;
40871;SDS011;26591;43.264;26.940;2023-04-24T01:56:10;15.48;;;7.10;;
40871;SDS011;26591;43.264;26.940;2023-04-24T01:58:36;50.17;;;21.80;;
40871;SDS011;26591;43.264;26.940;2023-04-24T02:01:01;127.00;;;46.13;;
40871;SDS011;26591;43.264;26.940;2023-04-24T02:03:27;142.60;;;51.20;;
40871;SDS011;26591;43.264;26.940;2023-04-24T02:05:52;122.82;;;47.10;;
40871;SDS011;26591;43.264;26.940;2023-04-24T02:08:18;61.90;;;28.65;;
40871;SDS011;26591;43.264;26.940;2023-04-24T02:10:43;25.85;;;9.90;;
40871;SDS011;26591;43.264;26.940;2023-04-24T02:13:09;11.43;;;6.93;;
40871;SDS011;26591;43.264;26.940;2023-04-24T02:15:35;14.50;;;7.50;;
40871;SDS011;26591;43.264;26.940;2023-04-24T02:18:01;12.68;;;6.60;;
40871;SDS011;26591;43.264;26.940;2023-04-24T02:20:26;18.40;;;8.05;;
40871;SDS011;26591;43.264;26.940;2023-04-24T02:22:52;14.05;;;6.75;;
40871;SDS011;26591;43.264;26.940;2023-04-24T02:25:17;14.00;;;7.00;;
40871;SDS011;26591;43.264;26.940;2023-04-24T02:27:43;15.05;;;7.43;;
40871;SDS011;26591;43.264;26.940;2023-04-24T02:30:08;13.05;;;7.40;;
40871;SDS011;26591;43.264;26.940;2023-04-24T02:32:34;11.13;;;6.45;;
40871;SDS011;26591;43.264;26.940;2023-04-24T02:35:00;12.52;;;6.65;;
40871;SDS011;26591;43.264;26.940;2023-04-24T02:37:26;14.02;;;6.97;;
40871;SDS011;26591;43.264;26.940;2023-04-24T02:39:51;11.25;;;7.68;;
40871;SDS011;26591;43.264;26.940;2023-04-24T02:42:17;16.27;;;6.82;;
40871;SDS011;26591;43.264;26.940;2023-04-24T02:44:42;19.02;;;7.80;;
40871;SDS011;26591;43.264;26.940;2023-04-24T02:47:10;15.77;;;7.80;;
40871;SDS011;26591;43.264;26.940;2023-04-24T02:49:35;16.25;;;7.88;;
40871;SDS011;26591;43.264;26.940;2023-04-24T02:52:01;15.45;;;8.23;;
40871;SDS011;26591;43.264;26.940;2023-04-24T02:54:26;13.68;;;8.35;;
40871;SDS011;26591;43.264;26.940;2023-04-24T02:56:52;14.90;;;7.15;;
40871;SDS011;26591;43.264;26.940;2023-04-24T02:59:17;24.95;;;8.82;;
40871;SDS011;26591;43.264;26.940;2023-04-24T03:01:43;15.50;;;7.88;;
40871;SDS011;26591;43.264;26.940;2023-04-24T03:04:08;12.48;;;7.28;;
40871;SDS011;26591;43.264;26.940;2023-04-24T03:06:35;14.20;;;8.50;;
40871;SDS011;26591;43.264;26.940;2023-04-24T03:09:01;11.95;;;7.00;;
40871;SDS011;26591;43.264;26.940;2023-04-24T03:11:26;19.60;;;8.30;;
40871;SDS011;26591;43.264;26.940;2023-04-24T03:13:52;21.02;;;9.43;;
40871;SDS011;26591;43.264;26.940;2023-04-24T03:16:29;24.08;;;10.50;;
40871;SDS011;26591;43.264;26.940;2023-04-24T03:18:55;21.08;;;8.20;;
40871;SDS011;26591;43.264;26.940;2023-04-24T03:21:21;17.10;;;7.57;;
40871;SDS011;26591;43.264;26.940;2023-04-24T03:23:47;14.32;;;7.00;;
40871;SDS011;26591;43.264;26.940;2023-04-24T03:26:12;12.82;;;7.68;;
40871;SDS011;26591;43.264;26.940;2023-04-24T03:28:38;14.13;;;6.93;;
40871;SDS011;26591;43.264;26.940;2023-04-24T03:31:04;12.25;;;7.45;;
40871;SDS011;26591;43.264;26.940;2023-04-24T03:33:30;19.23;;;6.72;;
40871;SDS011;26591;43.264;26.940;2023-04-24T03:35:55;17.95;;;7.45;;
40871;SDS011;26591;43.264;26.940;2023-04-24T03:38:22;20.15;;;7.68;;
40871;SDS011;26591;43.264;26.940;2023-04-24T03:40:49;22.50;;;8.00;;
40871;SDS011;26591;43.264;26.940;2023-04-24T03:43:14;17.38;;;7.95;;
40871;SDS011;26591;43.264;26.940;2023-04-24T03:45:40;29.48;;;8.60;;
40871;SDS011;26591;43.264;26.940;2023-04-24T03:48:07;19.75;;;8.10;;
40871;SDS011;26591;43.264;26.940;2023-04-24T03:50:33;16.48;;;7.30;;
40871;SDS011;26591;43.264;26.940;2023-04-24T03:52:59;15.27;;;6.75;;
40871;SDS011;26591;43.264;26.940;2023-04-24T03:55:25;19.15;;;7.43;;
40871;SDS011;26591;43.264;26.940;2023-04-24T03:57:50;19.13;;;8.00;;
40871;SDS011;26591;43.264;26.940;2023-04-24T04:00:16;20.83;;;8.05;;
40871;SDS011;26591;43.264;26.940;2023-04-24T04:02:44;16.65;;;7.32;;
40871;SDS011;26591;43.264;26.940;2023-04-24T04:05:09;17.13;;;8.38;;
40871;SDS011;26591;43.264;26.940;2023-04-24T04:07:35;17.27;;;8.40;;
40871;SDS011;26591;43.264;26.940;2023-04-24T04:10:00;17.50;;;8.63;;
40871;SDS011;26591;43.264;26.940;2023-04-24T04:12:26;19.52;;;9.40;;
40871;SDS011;26591;43.264;26.940;2023-04-24T04:14:51;21.42;;;9.52;;
40871;SDS011;26591;43.264;26.940;2023-04-24T04:17:17;26.77;;;10.85;;
40871;SDS011;26591;43.264;26.940;2023-04-24T04:19:43;22.83;;;9.88;;
40871;SDS011;26591;43.264;26.940;2023-04-24T04:22:08;34.70;;;12.15;;
40871;SDS011;26591;43.264;26.940;2023-04-24T04:24:34;23.40;;;10.70;;
40871;SDS011;26591;43.264;26.940;2023-04-24T04:27:14;24.08;;;9.98;;
40871;SDS011;26591;43.264;26.940;2023-04-24T04:29:41;24.05;;;10.27;;
40871;SDS011;26591;43.264;26.940;2023-04-24T04:32:07;27.52;;;11.70;;
40871;SDS011;26591;43.264;26.940;2023-04-24T04:34:32;19.35;;;10.18;;
40871;SDS011;26591;43.264;26.940;2023-04-24T04:36:58;32.40;;;11.32;;
40871;SDS011;26591;43.264;26.940;2023-04-24T04:39:26;23.10;;;10.10;;
40871;SDS011;26591;43.264;26.940;2023-04-24T04:41:53;25.48;;;9.63;;
40871;SDS011;26591;43.264;26.940;2023-04-24T04:44:19;27.88;;;9.73;;
40871;SDS011;26591;43.264;26.940;2023-04-24T04:46:44;34.80;;;11.25;;
40871;SDS011;26591;43.264;26.940;2023-04-24T04:49:10;20.38;;;8.50;;
40871;SDS011;26591;43.264;26.940;2023-04-24T04:51:36;20.08;;;8.15;;
40871;SDS011;26591;43.264;26.940;2023-04-24T04:54:01;19.35;;;8.00;;
40871;SDS011;26591;43.264;26.940;2023-04-24T04:56:27;19.08;;;7.78;;
40871;SDS011;26591;43.264;26.940;2023-04-24T04:58:52;21.65;;;8.10;;
40871;SDS011;26591;43.264;26.940;2023-04-24T05:01:18;13.43;;;7.05;;
40871;SDS011;26591;43.264;26.940;2023-04-24T05:03:44;25.42;;;7.35;;
40871;SDS011;26591;43.264;26.940;2023-04-24T05:06:10;24.40;;;8.02;;
40871;SDS011;26591;43.264;26.940;2023-04-24T05:08:35;14.85;;;7.20;;
40871;SDS011;26591;43.264;26.940;2023-04-24T05:11:01;29.58;;;8.05;;
40871;SDS011;26591;43.264;26.940;2023-04-24T05:13:26;25.55;;;7.03;;
40871;SDS011;26591;43.264;26.940;2023-04-24T05:15:51;14.20;;;6.35;;
40871;SDS011;26591;43.264;26.940;2023-04-24T05:18:17;26.55;;;7.85;;
40871;SDS011;26591;43.264;26.940;2023-04-24T05:20:43;11.85;;;6.50;;
40871;SDS011;26591;43.264;26.940;2023-04-24T05:23:09;28.02;;;7.43;;
40871;SDS011;26591;43.264;26.940;2023-04-24T05:25:35;16.80;;;5.82;;
40871;SDS011;26591;43.264;26.940;2023-04-24T05:28:01;22.30;;;9.55;;
40871;SDS011;26591;43.264;26.940;2023-04-24T05:30:27;24.67;;;8.82;;
40871;SDS011;26591;43.264;26.940;2023-04-24T05:32:53;21.10;;;7.13;;
40871;SDS011;26591;43.264;26.940;2023-04-24T05:35:18;19.33;;;5.80;;
40871;SDS011;26591;43.264;26.940;2023-04-24T05:37:44;16.75;;;5.93;;
40871;SDS011;26591;43.264;26.940;2023-04-24T05:40:12;17.23;;;5.90;;
40871;SDS011;26591;43.264;26.940;2023-04-24T05:42:37;13.70;;;5.40;;
40871;SDS011;26591;43.264;26.940;2023-04-24T05:45:03;14.57;;;6.13;;
40871;SDS011;26591;43.264;26.940;2023-04-24T05:47:29;24.60;;;8.05;;
40871;SDS011;26591;43.264;26.940;2023-04-24T05:49:55;18.33;;;6.32;;
40871;SDS011;26591;43.264;26.940;2023-04-24T05:52:20;27.20;;;7.05;;
40871;SDS011;26591;43.264;26.940;2023-04-24T05:54:46;15.38;;;6.55;;
40871;SDS011;26591;43.264;26.940;2023-04-24T05:57:11;23.08;;;6.38;;
40871;SDS011;26591;43.264;26.940;2023-04-24T05:59:37;15.98;;;5.20;;
40871;SDS011;26591;43.264;26.940;2023-04-24T06:02:21;15.52;;;6.05;;
40871;SDS011;26591;43.264;26.940;2023-04-24T06:04:47;12.73;;;5.28;;
40871;SDS011;26591;43.264;26.940;2023-04-24T06:07:12;13.95;;;4.35;;
40871;SDS011;26591;43.264;26.940;2023-04-24T06:09:38;13.80;;;4.75;;
40871;SDS011;26591;43.264;26.940;2023-04-24T06:12:03;9.98;;;4.95;;
40871;SDS011;26591;43.264;26.940;2023-04-24T06:14:29;16.48;;;5.07;;
40871;SDS011;26591;43.264;26.940;2023-04-24T06:16:59;16.25;;;5.28;;
40871;SDS011;26591;43.264;26.940;2023-04-24T06:19:25;11.68;;;5.35;;
40871;SDS011;26591;43.264;26.940;2023-04-24T06:21:50;12.38;;;4.30;;
40871;SDS011;26591;43.264;26.940;2023-04-24T06:24:15;13.40;;;4.25;;
40871;SDS011;26591;43.264;26.940;2023-04-24T06:26:41;12.50;;;4.25;;
40871;SDS011;26591;43.264;26.940;2023-04-24T06:29:07;14.18;;;4.43;;
40871;SDS011;26591;43.264;26.940;2023-04-24T06:31:32;14.70;;;4.43;;
40871;SDS011;26591;43.264;26.940;2023-04-24T06:34:02;8.98;;;4.15;;
40871;SDS011;26591;43.264;26.940;2023-04-24T06:36:28;14.18;;;4.55;;
40871;SDS011;26591;43.264;26.940;2023-04-24T06:38:53;12.73;;;4.70;;
40871;SDS011;26591;43.264;26.940;2023-04-24T06:41:19;11.63;;;3.80;;
40871;SDS011;26591;43.264;26.940;2023-04-24T06:43:45;14.88;;;4.63;;
40871;SDS011;26591;43.264;26.940;2023-04-24T06:46:10;13.70;;;3.55;;
40871;SDS011;26591;43.264;26.940;2023-04-24T06:48:37;12.50;;;4.15;;
40871;SDS011;26591;43.264;26.940;2023-04-24T06:51:02;8.02;;;3.85;;
40871;SDS011;26591;43.264;26.940;2023-04-24T06:53:28;7.22;;;3.35;;
40871;SDS011;26591;43.264;26.940;2023-04-24T06:55:53;8.85;;;3.85;;
40871;SDS011;26591;43.264;26.940;2023-04-24T06:58:19;8.52;;;3.90;;
40871;SDS011;26591;43.264;26.940;2023-04-24T07:00:45;18.45;;;3.63;;
40871;SDS011;26591;43.264;26.940;2023-04-24T07:03:10;12.13;;;3.50;;
40871;SDS011;26591;43.264;26.940;2023-04-24T07:05:36;5.97;;;3.27;;
40871;SDS011;26591;43.264;26.940;2023-04-24T07:08:03;14.20;;;4.20;;
40871;SDS011;26591;43.264;26.940;2023-04-24T07:10:29;10.05;;;3.90;;
40871;SDS011;26591;43.264;26.940;2023-04-24T07:12:55;6.43;;;3.10;;
40871;SDS011;26591;43.264;26.940;2023-04-24T07:15:23;9.50;;;3.05;;
40871;SDS011;26591;43.264;26.940;2023-04-24T07:17:49;12.80;;;3.92;;
40871;SDS011;26591;43.264;26.940;2023-04-24T07:20:15;7.70;;;3.28;;
40871;SDS011;26591;43.264;26.940;2023-04-24T07:22:52;6.65;;;3.30;;
40871;SDS011;26591;43.264;26.940;2023-04-24T07:25:19;5.82;;;2.42;;
40871;SDS011;26591;43.264;26.940;2023-04-24T07:27:44;6.53;;;2.17;;
40871;SDS011;26591;43.264;26.940;2023-04-24T07:30:10;11.45;;;2.88;;
40871;SDS011;26591;43.264;26.940;2023-04-24T07:32:38;6.63;;;2.55;;
40871;SDS011;26591;43.264;26.940;2023-04-24T07:35:03;8.93;;;2.63;;
40871;SDS011;26591;43.264;26.940;2023-04-24T07:37:29;8.10;;;2.60;;
40871;SDS011;26591;43.264;26.940;2023-04-24T07:39:55;9.98;;;3.00;;
40871;SDS011;26591;43.264;26.940;2023-04-24T07:42:20;12.23;;;2.97;;
40871;SDS011;26591;43.264;26.940;2023-04-24T07:44:52;6.68;;;2.22;;
40871;SDS011;26591;43.264;26.940;2023-04-24T07:47:17;5.05;;;2.38;;
40871;SDS011;26591;43.264;26.940;2023-04-24T07:49:43;5.65;;;2.20;;
40871;SDS011;26591;43.264;26.940;2023-04-24T07:52:08;8.30;;;2.35;;
40871;SDS011;26591;43.264;26.940;2023-04-24T07:54:55;6.38;;;2.35;;
40871;SDS011;26591;43.264;26.940;2023-04-24T07:57:25;7.95;;;2.70;;
40871;SDS011;26591;43.264;26.940;2023-04-24T07:59:51;4.63;;;2.22;;
40871;SDS011;26591;43.264;26.940;2023-04-24T08:02:16;6.95;;;2.30;;
40871;SDS011;26591;43.264;26.940;2023-04-24T08:04:42;8.52;;;2.38;;
40871;SDS011;26591;43.264;26.940;2023-04-24T08:07:08;7.47;;;2.95;;
40871;SDS011;26591;43.264;26.940;2023-04-24T08:09:33;5.55;;;2.53;;
40871;SDS011;26591;43.264;26.940;2023-04-24T08:11:59;7.13;;;3.00;;
40871;SDS011;26591;43.264;26.940;2023-04-24T08:14:25;10.68;;;2.70;;
40871;SDS011;26591;43.264;26.940;2023-04-24T08:16:52;5.32;;;2.42;;
40871;SDS011;26591;43.264;26.940;2023-04-24T08:19:20;5.13;;;2.70;;
40871;SDS011;26591;43.264;26.940;2023-04-24T08:21:45;6.10;;;2.25;;
40871;SDS011;26591;43.264;26.940;2023-04-24T08:24:10;5.85;;;2.20;;
40871;SDS011;26591;43.264;26.940;2023-04-24T08:26:36;11.30;;;2.13;;
40871;SDS011;26591;43.264;26.940;2023-04-24T08:29:01;6.63;;;2.30;;
40871;SDS011;26591;43.264;26.940;2023-04-24T08:31:27;5.82;;;2.50;;
40871;SDS011;26591;43.264;26.940;2023-04-24T08:33:53;6.97;;;2.08;;
40871;SDS011;26591;43.264;26.940;2023-04-24T08:36:18;10.05;;;2.80;;
40871;SDS011;26591;43.264;26.940;2023-04-24T08:38:45;11.25;;;2.03;;
40871;SDS011;26591;43.264;26.940;2023-04-24T08:41:11;6.23;;;2.10;;
40871;SDS011;26591;43.264;26.940;2023-04-24T08:43:39;12.02;;;2.15;;
40871;SDS011;26591;43.264;26.940;2023-04-24T08:46:05;9.90;;;2.80;;
40871;SDS011;26591;43.264;26.940;2023-04-24T08:48:31;5.90;;;2.22;;
40871;SDS011;26591;43.264;26.940;2023-04-24T08:50:58;8.43;;;2.15;;
40871;SDS011;26591;43.264;26.940;2023-04-24T08:53:24;6.28;;;2.45;;
40871;SDS011;26591;43.264;26.940;2023-04-24T08:55:51;12.32;;;2.65;;
40871;SDS011;26591;43.264;26.940;2023-04-24T08:58:19;10.88;;;2.53;;
40871;SDS011;26591;43.264;26.940;2023-04-24T09:00:44;10.93;;;2.65;;
40871;SDS011;26591;43.264;26.940;2023-04-24T09:03:15;6.43;;;2.08;;
40871;SDS011;26591;43.264;26.940;2023-04-24T09:05:46;9.03;;;2.23;;
40871;SDS011;26591;43.264;26.940;2023-04-24T09:08:12;5.15;;;2.08;;
40871;SDS011;26591;43.264;26.940;2023-04-24T09:10:39;17.23;;;3.15;;
40871;SDS011;26591;43.264;26.940;2023-04-24T09:13:05;6.38;;;2.10;;
40871;SDS011;26591;43.264;26.940;2023-04-24T09:15:34;7.70;;;2.03;;
40871;SDS011;26591;43.264;26.940;2023-04-24T09:18:09;6.65;;;2.20;;
40871;SDS011;26591;43.264;26.940;2023-04-24T09:20:35;7.88;;;2.50;;
40871;SDS011;26591;43.264;26.940;2023-04-24T09:25:57;3.33;;;1.80;;
40871;SDS011;26591;43.264;26.940;2023-04-24T09:28:46;5.25;;;2.10;;
40871;SDS011;26591;43.264;26.940;2023-04-24T09:31:14;4.60;;;2.15;;
40871;SDS011;26591;43.264;26.940;2023-04-24T09:33:53;3.47;;;1.95;;
40871;SDS011;26591;43.264;26.940;2023-04-24T09:36:29;4.53;;;2.13;;
40871;SDS011;26591;43.264;26.940;2023-04-24T09:38:58;9.40;;;3.08;;
40871;SDS011;26591;43.264;26.940;2023-04-24T09:41:27;2.70;;;1.70;;
40871;SDS011;26591;43.264;26.940;2023-04-24T09:43:54;7.45;;;2.15;;
40871;SDS011;26591;43.264;26.940;2023-04-24T09:46:20;6.78;;;3.03;;
40871;SDS011;26591;43.264;26.940;2023-04-24T09:48:47;5.07;;;2.03;;
40871;SDS011;26591;43.264;26.940;2023-04-24T09:51:13;8.38;;;2.60;;
40871;SDS011;26591;43.264;26.940;2023-04-24T09:53:44;7.25;;;2.97;;
40871;SDS011;26591;43.264;26.940;2023-04-24T09:56:11;5.68;;;1.80;;
40871;SDS011;26591;43.264;26.940;2023-04-24T09:58:40;7.47;;;3.60;;
40871;SDS011;26591;43.264;26.940;2023-04-24T10:01:05;7.70;;;2.67;;
40871;SDS011;26591;43.264;26.940;2023-04-24T10:03:31;12.25;;;2.70;;
40871;SDS011;26591;43.264;26.940;2023-04-24T10:06:01;6.75;;;2.30;;
40871;SDS011;26591;43.264;26.940;2023-04-24T10:08:34;4.72;;;2.10;;
40871;SDS011;26591;43.264;26.940;2023-04-24T10:11:06;4.70;;;2.03;;
40871;SDS011;26591;43.264;26.940;2023-04-24T10:13:33;6.90;;;2.05;;
40871;SDS011;26591;43.264;26.940;2023-04-24T10:16:04;10.02;;;2.42;;
40871;SDS011;26591;43.264;26.940;2023-04-24T10:18:30;4.82;;;2.00;;
40871;SDS011;26591;43.264;26.940;2023-04-24T10:20:57;5.20;;;2.28;;
40871;SDS011;26591;43.264;26.940;2023-04-24T10:23:25;5.70;;;2.67;;
40871;SDS011;26591;43.264;26.940;2023-04-24T10:25:51;7.53;;;1.90;;
40871;SDS011;26591;43.264;26.940;2023-04-24T10:28:17;7.00;;;2.35;;
40871;SDS011;26591;43.264;26.940;2023-04-24T10:30:44;6.85;;;2.45;;
40871;SDS011;26591;43.264;26.940;2023-04-24T10:33:10;5.88;;;1.85;;
40871;SDS011;26591;43.264;26.940;2023-04-24T10:35:39;3.67;;;2.33;;
40871;SDS011;26591;43.264;26.940;2023-04-24T10:38:14;14.40;;;2.70;;
40871;SDS011;26591;43.264;26.940;2023-04-24T10:40:43;6.97;;;2.40;;
40871;SDS011;26591;43.264;26.940;2023-04-24T10:43:09;6.30;;;2.67;;
40871;SDS011;26591;43.264;26.940;2023-04-24T10:45:36;3.42;;;1.92;;
40871;SDS011;26591;43.264;26.940;2023-04-24T10:51:13;7.15;;;3.05;;
40871;SDS011;26591;43.264;26.940;2023-04-24T10:53:18;8.27;;;2.60;;
40871;SDS011;26591;43.264;26.940;2023-04-24T10:55:48;7.35;;;2.00;;
40871;SDS011;26591;43.264;26.940;2023-04-24T10:58:16;13.88;;;2.55;;
40871;SDS011;26591;43.264;26.940;2023-04-24T11:00:56;7.53;;;2.42;;
40871;SDS011;26591;43.264;26.940;2023-04-24T11:03:27;5.97;;;2.00;;
40871;SDS011;26591;43.264;26.940;2023-04-24T11:08:50;9.45;;;2.40;;
40871;SDS011;26591;43.264;26.940;2023-04-24T11:11:16;3.53;;;2.20;;
40871;SDS011;26591;43.264;26.940;2023-04-24T11:16:21;8.68;;;2.35;;
40871;SDS011;26591;43.264;26.940;2023-04-24T11:21:43;5.43;;;1.92;;
40871;SDS011;26591;43.264;26.940;2023-04-24T11:27:20;5.53;;;2.25;;
40871;SDS011;26591;43.264;26.940;2023-04-24T11:32:34;10.43;;;2.58;;
40871;SDS011;26591;43.264;26.940;2023-04-24T11:35:05;5.28;;;2.35;;
40871;SDS011;26591;43.264;26.940;2023-04-24T11:37:38;10.75;;;2.13;;
40871;SDS011;26591;43.264;26.940;2023-04-24T11:40:06;6.53;;;2.53;;
40871;SDS011;26591;43.264;26.940;2023-04-24T11:45:02;9.82;;;2.78;;
40871;SDS011;26591;43.264;26.940;2023-04-24T11:47:33;11.77;;;2.90;;
40871;SDS011;26591;43.264;26.940;2023-04-24T11:50:00;9.95;;;2.60;;
40871;SDS011;26591;43.264;26.940;2023-04-24T11:52:27;7.95;;;2.92;;
40871;SDS011;26591;43.264;26.940;2023-04-24T11:54:53;5.22;;;3.03;;
40871;SDS011;26591;43.264;26.940;2023-04-24T11:57:19;6.28;;;2.20;;
40871;SDS011;26591;43.264;26.940;2023-04-24T11:59:46;8.05;;;3.75;;
40871;SDS011;26591;43.264;26.940;2023-04-24T12:02:21;8.27;;;3.15;;
40871;SDS011;26591;43.264;26.940;2023-04-24T12:04:47;11.02;;;3.70;;
40871;SDS011;26591;43.264;26.940;2023-04-24T12:07:13;12.02;;;3.17;;
40871;SDS011;26591;43.264;26.940;2023-04-24T12:09:45;10.05;;;3.38;;
40871;SDS011;26591;43.264;26.940;2023-04-24T12:12:20;8.05;;;3.20;;
40871;SDS011;26591;43.264;26.940;2023-04-24T12:14:49;18.15;;;5.93;;
40871;SDS011;26591;43.264;26.940;2023-04-24T12:17:17;9.73;;;3.20;;
40871;SDS011;26591;43.264;26.940;2023-04-24T12:19:47;13.88;;;4.22;;
40871;SDS011;26591;43.264;26.940;2023-04-24T12:22:13;10.57;;;3.90;;
40871;SDS011;26591;43.264;26.940;2023-04-24T12:27:26;10.27;;;4.10;;
40871;SDS011;26591;43.264;26.940;2023-04-24T12:29:57;7.50;;;3.42;;
40871;SDS011;26591;43.264;26.940;2023-04-24T12:32:24;8.05;;;3.50;;
40871;SDS011;26591;43.264;26.940;2023-04-24T12:34:50;10.60;;;5.20;;
40871;SDS011;26591;43.264;26.940;2023-04-24T12:37:23;7.67;;;3.80;;
40871;SDS011;26591;43.264;26.940;2023-04-24T12:42:27;6.55;;;3.60;;
40871;SDS011;26591;43.264;26.940;2023-04-24T12:44:56;7.57;;;3.25;;
40871;SDS011;26591;43.264;26.940;2023-04-24T12:47:23;5.75;;;3.75;;
40871;SDS011;26591;43.264;26.940;2023-04-24T12:49:49;4.50;;;2.40;;
40871;SDS011;26591;43.264;26.940;2023-04-24T12:52:17;6.45;;;2.85;;
40871;SDS011;26591;43.264;26.940;2023-04-24T12:54:45;8.23;;;2.40;;
40871;SDS011;26591;43.264;26.940;2023-04-24T12:57:11;5.72;;;2.95;;
40871;SDS011;26591;43.264;26.940;2023-04-24T12:59:36;12.90;;;3.53;;
40871;SDS011;26591;43.264;26.940;2023-04-24T13:02:01;6.53;;;3.13;;
40871;SDS011;26591;43.264;26.940;2023-04-24T13:04:27;5.90;;;2.80;;
40871;SDS011;26591;43.264;26.940;2023-04-24T13:06:53;10.70;;;3.15;;
40871;SDS011;26591;43.264;26.940;2023-04-24T13:09:18;4.50;;;2.40;;
40871;SDS011;26591;43.264;26.940;2023-04-24T13:11:44;7.60;;;2.50;;
40871;SDS011;26591;43.264;26.940;2023-04-24T13:14:09;6.43;;;2.60;;
40871;SDS011;26591;43.264;26.940;2023-04-24T13:16:35;7.88;;;3.10;;
40871;SDS011;26591;43.264;26.940;2023-04-24T13:19:00;5.18;;;2.95;;
40871;SDS011;26591;43.264;26.940;2023-04-24T13:21:26;9.45;;;3.33;;
40871;SDS011;26591;43.264;26.940;2023-04-24T13:23:52;7.28;;;2.55;;
40871;SDS011;26591;43.264;26.940;2023-04-24T13:26:18;10.38;;;2.63;;
40871;SDS011;26591;43.264;26.940;2023-04-24T13:28:43;6.30;;;3.38;;
40871;SDS011;26591;43.264;26.940;2023-04-24T13:31:09;14.88;;;3.95;;
40871;SDS011;26591;43.264;26.940;2023-04-24T13:33:34;8.90;;;2.72;;
40871;SDS011;26591;43.264;26.940;2023-04-24T13:36:00;10.60;;;2.80;;
40871;SDS011;26591;43.264;26.940;2023-04-24T13:38:25;6.70;;;2.60;;
40871;SDS011;26591;43.264;26.940;2023-04-24T13:40:51;7.25;;;2.45;;
40871;SDS011;26591;43.264;26.940;2023-04-24T13:43:16;10.82;;;2.88;;
40871;SDS011;26591;43.264;26.940;2023-04-24T13:45:42;6.78;;;2.92;;
40871;SDS011;26591;43.264;26.940;2023-04-24T13:48:07;6.78;;;2.90;;
40871;SDS011;26591;43.264;26.940;2023-04-24T13:50:34;4.72;;;2.90;;
40871;SDS011;26591;43.264;26.940;2023-04-24T13:52:59;8.10;;;3.03;;
40871;SDS011;26591;43.264;26.940;2023-04-24T13:55:26;7.07;;;3.13;;
40871;SDS011;26591;43.264;26.940;2023-04-24T13:57:51;10.10;;;3.83;;
40871;SDS011;26591;43.264;26.940;2023-04-24T14:00:20;6.47;;;2.80;;
40871;SDS011;26591;43.264;26.940;2023-04-24T14:02:46;18.45;;;3.45;;
40871;SDS011;26591;43.264;26.940;2023-04-24T14:05:12;5.35;;;2.53;;
40871;SDS011;26591;43.264;26.940;2023-04-24T14:07:40;19.55;;;4.03;;
40871;SDS011;26591;43.264;26.940;2023-04-24T14:10:06;9.60;;;3.00;;
40871;SDS011;26591;43.264;26.940;2023-04-24T14:12:32;16.30;;;3.15;;
40871;SDS011;26591;43.264;26.940;2023-04-24T14:14:57;4.25;;;2.85;;
40871;SDS011;26591;43.264;26.940;2023-04-24T14:17:23;9.45;;;2.45;;
40871;SDS011;26591;43.264;26.940;2023-04-24T14:19:48;8.30;;;3.17;;
40871;SDS011;26591;43.264;26.940;2023-04-24T14:22:15;7.85;;;3.00;;
40871;SDS011;26591;43.264;26.940;2023-04-24T14:24:41;5.00;;;2.50;;
40871;SDS011;26591;43.264;26.940;2023-04-24T14:27:07;12.57;;;2.88;;
40871;SDS011;26591;43.264;26.940;2023-04-24T14:29:32;14.27;;;3.28;;
40871;SDS011;26591;43.264;26.940;2023-04-24T14:31:58;9.43;;;2.75;;
40871;SDS011;26591;43.264;26.940;2023-04-24T14:34:23;20.13;;;4.13;;
40871;SDS011;26591;43.264;26.940;2023-04-24T14:36:51;6.25;;;2.80;;
40871;SDS011;26591;43.264;26.940;2023-04-24T14:39:17;6.88;;;2.65;;
40871;SDS011;26591;43.264;26.940;2023-04-24T14:41:43;6.25;;;2.40;;
40871;SDS011;26591;43.264;26.940;2023-04-24T14:44:08;8.20;;;2.80;;
40871;SDS011;26591;43.264;26.940;2023-04-24T14:46:34;10.48;;;3.38;;
40871;SDS011;26591;43.264;26.940;2023-04-24T14:49:00;6.95;;;3.03;;
40871;SDS011;26591;43.264;26.940;2023-04-24T14:51:25;5.93;;;3.58;;